createdAt,value
2019-02-10T00:01:49.591Z,26.00
2019-02-10T00:04:19.084Z,21.93
2019-02-10T00:06:48.550Z,27.10
2019-02-10T00:09:18.020Z,27.00
2019-02-10T00:11:47.527Z,22.97
2019-02-10T00:14:16.995Z,27.80
2019-02-10T00:16:46.408Z,22.77
2019-02-10T00:19:15.830Z,26.03
2019-02-10T00:21:45.487Z,23.07
2019-02-10T00:24:14.980Z,25.83
2019-02-10T00:26:44.600Z,24.20
2019-02-10T00:29:14.060Z,26.30
2019-02-10T00:31:43.619Z,27.33
2019-02-10T00:34:13.111Z,32.10
2019-02-10T00:36:42.597Z,22.03
2019-02-10T00:39:12.007Z,26.60
2019-02-10T00:41:41.623Z,26.37
2019-02-10T00:44:11.083Z,24.00
2019-02-10T00:46:40.576Z,25.33
2019-02-10T00:49:10.074Z,24.40
2019-02-10T00:51:39.600Z,25.50
2019-02-10T00:54:09.000Z,23.33
2019-02-10T00:56:38.485Z,22.97
2019-02-10T00:59:08.065Z,26.53
2019-02-10T01:01:37.519Z,21.10
2019-02-10T01:04:07.035Z,25.70
2019-02-10T01:06:41.371Z,21.27
2019-02-10T01:09:08.027Z,21.60
2019-02-10T01:11:37.536Z,23.03
2019-02-10T01:14:06.996Z,20.30
2019-02-10T01:16:36.466Z,20.03
2019-02-10T01:19:09.789Z,18.63
2019-02-10T01:21:39.559Z,22.43
2019-02-10T01:24:09.017Z,17.73
2019-02-10T01:26:38.624Z,19.60
2019-02-10T01:29:08.103Z,21.17
2019-02-10T01:31:37.567Z,20.00
2019-02-10T01:34:07.075Z,20.83
2019-02-10T01:36:36.628Z,21.53
2019-02-10T01:39:08.391Z,23.90
2019-02-10T01:41:37.855Z,23.13
2019-02-10T01:44:07.333Z,20.13
2019-02-10T01:46:36.837Z,22.20
2019-02-10T01:49:06.308Z,20.03
2019-02-10T01:51:35.766Z,23.03
2019-02-10T01:54:05.354Z,24.37
2019-02-10T01:56:34.832Z,23.40
2019-02-10T01:59:04.285Z,21.23
2019-02-10T02:01:33.787Z,16.53
2019-02-10T02:04:03.281Z,23.43
2019-02-10T02:06:32.846Z,20.10
2019-02-10T02:09:02.364Z,21.50
2019-02-10T02:11:31.861Z,20.67
2019-02-10T02:14:01.332Z,19.00
2019-02-10T02:16:30.810Z,19.67
2019-02-10T02:19:00.309Z,20.10
2019-02-10T02:21:29.711Z,20.70
2019-02-10T02:23:59.330Z,20.90
2019-02-10T02:26:28.834Z,29.23
2019-02-10T02:28:58.306Z,20.73
2019-02-10T02:31:27.805Z,24.87
2019-02-10T02:33:57.307Z,22.60
2019-02-10T02:36:26.761Z,22.90
2019-02-10T02:38:56.262Z,26.03
2019-02-10T02:41:25.737Z,21.50
2019-02-10T02:43:55.262Z,20.40
2019-02-10T02:46:24.877Z,19.63
2019-02-10T02:48:54.274Z,22.50
2019-02-10T02:51:24.016Z,18.40
2019-02-10T02:53:53.506Z,20.87
2019-02-10T02:56:23.037Z,20.37
2019-02-10T02:58:52.543Z,21.90
2019-02-10T03:01:22.027Z,23.37
2019-02-10T03:03:51.454Z,17.27
2019-02-10T03:06:20.933Z,23.57
2019-02-10T03:08:50.396Z,19.30
2019-02-10T03:11:21.697Z,18.33
2019-02-10T03:13:51.171Z,30.23
2019-02-10T03:16:20.641Z,20.97
2019-02-10T03:18:53.180Z,17.07
2019-02-10T03:21:21.394Z,21.23
2019-02-10T03:23:50.864Z,27.10
2019-02-10T03:26:20.363Z,22.10
2019-02-10T03:28:49.828Z,17.50
2019-02-10T03:31:19.326Z,17.60
2019-02-10T03:33:48.946Z,19.67
2019-02-10T03:36:18.493Z,18.60
2019-02-10T03:38:47.943Z,22.43
2019-02-10T03:41:17.465Z,22.10
2019-02-10T03:43:46.965Z,20.47
2019-02-10T03:46:16.428Z,22.60
2019-02-10T03:48:45.944Z,21.63
2019-02-10T03:51:15.418Z,32.03
2019-02-10T03:53:44.978Z,40.43
2019-02-10T03:56:14.585Z,46.37
2019-02-10T03:58:44.053Z,42.77
2019-02-10T04:01:13.458Z,42.50
2019-02-10T04:03:42.885Z,44.27
2019-02-10T04:06:12.359Z,53.70
2019-02-10T04:08:41.875Z,52.50
2019-02-10T04:11:11.387Z,49.03
2019-02-10T04:13:40.827Z,57.67
2019-02-10T04:16:10.313Z,52.83
2019-02-10T04:18:39.890Z,52.93
2019-02-10T04:21:09.361Z,48.87
2019-02-10T04:23:38.921Z,57.57
2019-02-10T04:26:08.424Z,52.90
2019-02-10T04:28:37.895Z,46.97
2019-02-10T04:31:07.370Z,55.77
2019-02-10T04:33:36.919Z,60.00
2019-02-10T04:36:06.396Z,49.03
2019-02-10T04:38:35.886Z,50.50
2019-02-10T04:41:05.379Z,49.23
2019-02-10T04:43:34.857Z,48.53
2019-02-10T04:46:04.343Z,60.93
2019-02-10T04:48:33.831Z,49.50
2019-02-10T04:51:03.334Z,48.00
2019-02-10T04:53:32.889Z,49.83
2019-02-10T04:56:11.034Z,44.77
2019-02-10T04:58:40.496Z,52.30
2019-02-10T05:01:09.974Z,50.00
2019-02-10T05:03:39.551Z,45.07
2019-02-10T05:06:09.066Z,51.23
2019-02-10T05:08:38.666Z,47.63
2019-02-10T05:11:08.172Z,51.63
2019-02-10T05:13:37.810Z,49.93
2019-02-10T05:16:07.300Z,50.73
2019-02-10T05:18:36.781Z,52.20
2019-02-10T05:21:06.243Z,48.40
2019-02-10T05:23:35.749Z,59.13
2019-02-10T05:26:05.249Z,47.07
2019-02-10T05:28:34.722Z,51.20
2019-02-10T05:31:04.331Z,39.47
2019-02-10T05:33:33.845Z,45.83
2019-02-10T05:36:03.420Z,49.03
2019-02-10T05:38:32.882Z,49.27
2019-02-10T05:41:02.356Z,51.37
2019-02-10T05:43:31.819Z,41.17
2019-02-10T05:46:01.336Z,45.80
2019-02-10T05:48:30.808Z,44.30
2019-02-10T05:51:00.307Z,46.73
2019-02-10T05:53:29.818Z,42.53
2019-02-10T05:55:59.485Z,39.43
2019-02-10T05:58:28.956Z,32.80
2019-02-10T06:01:35.053Z,32.53
2019-02-10T06:04:04.860Z,31.83
2019-02-10T06:06:34.327Z,37.17
2019-02-10T06:09:04.634Z,31.53
2019-02-10T06:11:34.156Z,34.17
2019-02-10T06:14:03.674Z,33.03
2019-02-10T06:16:33.168Z,30.70
2019-02-10T06:19:02.683Z,37.23
2019-02-10T06:21:32.149Z,35.27
2019-02-10T06:24:01.844Z,35.07
2019-02-10T06:26:31.340Z,34.80
2019-02-10T06:29:00.841Z,37.90
2019-02-10T06:31:30.344Z,41.23
2019-02-10T06:33:59.815Z,33.83
2019-02-10T06:36:29.288Z,39.93
2019-02-10T06:38:58.807Z,36.93
2019-02-10T06:41:28.270Z,36.67
2019-02-10T06:43:57.796Z,39.37
2019-02-10T06:46:27.275Z,32.30
2019-02-10T06:48:56.736Z,35.60
2019-02-10T06:51:26.231Z,38.43
2019-02-10T06:53:55.706Z,40.47
2019-02-10T06:56:25.264Z,39.03
2019-02-10T06:58:54.775Z,37.20
2019-02-10T07:01:25.808Z,37.30
2019-02-10T07:03:59.545Z,36.97
2019-02-10T07:06:29.435Z,42.17
2019-02-10T07:08:59.005Z,36.47
2019-02-10T07:11:28.513Z,35.50
2019-02-10T07:13:59.424Z,34.93
2019-02-10T07:16:42.556Z,32.33
2019-02-10T07:20:08.143Z,31.37
2019-02-10T07:22:44.817Z,30.37
2019-02-10T07:25:18.958Z,29.37
2019-02-10T07:28:06.883Z,30.40
2019-02-10T07:31:01.110Z,28.13
2019-02-10T07:33:49.606Z,34.77
2019-02-10T07:36:38.727Z,28.43
2019-02-10T07:39:51.831Z,33.00
2019-02-10T07:42:34.779Z,28.90
2019-02-10T07:45:29.982Z,37.40
2019-02-10T07:48:13.105Z,34.70
2019-02-10T07:50:50.050Z,31.97
2019-02-10T07:53:59.900Z,40.03
2019-02-10T07:57:18.065Z,34.67
2019-02-10T08:00:16.191Z,37.20
2019-02-10T08:03:04.575Z,38.87
2019-02-10T08:05:53.401Z,45.07
2019-02-10T08:08:46.625Z,45.87
2019-02-10T08:11:27.454Z,43.87
2019-02-10T08:14:19.629Z,47.93
2019-02-10T08:17:11.976Z,43.37
2019-02-10T08:19:58.017Z,46.93
2019-02-10T08:22:40.615Z,43.77
2019-02-10T08:25:23.867Z,49.87
2019-02-10T08:28:13.360Z,42.80
2019-02-10T08:30:53.642Z,46.77
2019-02-10T08:33:45.611Z,67.73
2019-02-10T08:36:49.780Z,45.37
2019-02-10T08:39:44.629Z,47.17
2019-02-10T08:42:30.817Z,40.73
2019-02-10T08:45:24.455Z,44.53
2019-02-10T08:48:13.495Z,39.93
2019-02-10T08:51:14.998Z,39.17
2019-02-10T08:53:44.486Z,34.33
2019-02-10T08:56:13.964Z,35.33
2019-02-10T08:58:43.433Z,41.97
2019-02-10T09:01:12.926Z,34.27
2019-02-10T09:03:42.402Z,32.30
2019-02-10T09:06:11.966Z,33.27
2019-02-10T09:08:41.472Z,36.03
2019-02-10T09:11:10.953Z,32.73
2019-02-10T09:13:40.454Z,31.50
2019-02-10T09:16:09.954Z,33.57
2019-02-10T09:18:39.431Z,25.43
2019-02-10T09:21:08.903Z,25.80
2019-02-10T09:23:38.537Z,28.70
2019-02-10T09:26:08.019Z,23.60
2019-02-10T09:28:37.472Z,20.60
2019-02-10T09:31:07.060Z,26.83
2019-02-10T09:33:36.562Z,31.90
2019-02-10T09:36:06.029Z,28.80
2019-02-10T09:38:35.505Z,33.53
2019-02-10T09:41:05.053Z,37.87
2019-02-10T09:43:34.514Z,32.20
2019-02-10T09:46:03.983Z,32.23
2019-02-10T09:48:33.476Z,30.80
2019-02-10T09:51:03.082Z,31.53
2019-02-10T09:53:32.546Z,33.90
2019-02-10T09:56:02.039Z,37.27
2019-02-10T09:58:31.430Z,35.57
2019-02-10T10:01:00.897Z,37.87
2019-02-10T10:03:30.538Z,40.83
2019-02-10T10:05:59.987Z,43.17
2019-02-10T10:08:29.468Z,38.83
2019-02-10T10:10:58.964Z,43.70
2019-02-10T10:13:28.447Z,43.17
2019-02-10T10:15:57.929Z,44.90
2019-02-10T10:18:27.412Z,42.10
2019-02-10T10:20:56.926Z,38.40
2019-02-10T10:23:26.497Z,43.00
2019-02-10T10:25:55.972Z,37.43
2019-02-10T10:28:25.464Z,43.87
2019-02-10T10:30:54.942Z,36.87
2019-02-10T10:33:24.493Z,43.20
2019-02-10T10:35:53.989Z,40.53
2019-02-10T10:38:23.488Z,38.87
2019-02-10T10:40:53.646Z,34.47
2019-02-10T10:43:23.245Z,36.27
2019-02-10T10:45:52.705Z,33.67
2019-02-10T10:48:22.184Z,28.50
2019-02-10T10:50:51.674Z,34.53
2019-02-10T10:53:21.159Z,29.70
2019-02-10T10:55:50.625Z,26.53
2019-02-10T10:58:20.249Z,25.30
2019-02-10T11:00:49.702Z,24.50
2019-02-10T11:03:19.187Z,23.67
2019-02-10T11:05:48.682Z,24.33
2019-02-10T11:08:18.175Z,21.57
2019-02-10T11:10:47.757Z,22.77
2019-02-10T11:13:17.420Z,27.07
2019-02-10T11:15:46.910Z,22.20
2019-02-10T11:18:16.433Z,20.13
2019-02-10T11:20:45.920Z,24.67
2019-02-10T11:23:15.408Z,21.83
2019-02-10T11:25:44.940Z,22.53
2019-02-10T11:28:14.412Z,22.93
2019-02-10T11:30:43.896Z,22.07
2019-02-10T11:33:13.398Z,22.30
2019-02-10T11:35:42.908Z,23.53
2019-02-10T11:38:12.399Z,22.37
2019-02-10T11:40:41.979Z,23.00
2019-02-10T11:43:11.454Z,22.20
2019-02-10T11:45:40.934Z,58.67
2019-02-10T11:48:10.477Z,25.77
2019-02-10T11:50:39.969Z,25.23
2019-02-10T11:53:09.456Z,21.80
2019-02-10T11:55:38.972Z,22.93
2019-02-10T11:58:08.441Z,25.07
2019-02-10T12:00:38.143Z,23.77
2019-02-10T12:03:08.014Z,24.03
2019-02-10T12:05:37.499Z,22.00
2019-02-10T12:08:07.084Z,24.77
2019-02-10T12:10:36.571Z,23.57
2019-02-10T12:13:06.075Z,21.77
2019-02-10T12:15:35.551Z,22.73
2019-02-10T12:18:05.151Z,21.17
2019-02-10T12:20:34.646Z,21.87
2019-02-10T12:23:08.657Z,20.37
2019-02-10T12:25:38.166Z,23.43
2019-02-10T12:28:07.683Z,22.77
2019-02-10T12:30:37.153Z,21.90
2019-02-10T12:33:06.665Z,21.63
2019-02-10T12:35:36.132Z,22.50
2019-02-10T12:38:05.643Z,24.20
2019-02-10T12:40:35.154Z,21.20
2019-02-10T12:43:04.659Z,20.90
2019-02-10T12:45:34.144Z,22.87
2019-02-10T12:48:03.684Z,22.20
2019-02-10T12:50:33.304Z,22.60
2019-02-10T12:53:02.790Z,21.33
2019-02-10T12:55:32.292Z,23.47
2019-02-10T12:58:01.782Z,25.13
2019-02-10T13:00:31.264Z,22.30
2019-02-10T13:03:00.769Z,22.87
2019-02-10T13:05:30.250Z,22.87
2019-02-10T13:07:59.733Z,23.63
2019-02-10T13:10:29.242Z,27.47
2019-02-10T13:12:58.645Z,28.50
2019-02-10T13:15:29.096Z,25.50
2019-02-10T13:17:58.817Z,25.07
2019-02-10T13:20:28.409Z,23.93
2019-02-10T13:22:57.883Z,26.20
2019-02-10T13:25:46.750Z,23.10
2019-02-10T13:28:16.234Z,24.60
2019-02-10T13:30:45.848Z,21.03
2019-02-10T13:33:15.339Z,22.07
2019-02-10T13:35:45.009Z,22.87
2019-02-10T13:38:14.514Z,22.50
2019-02-10T13:40:44.006Z,22.03
2019-02-10T13:43:13.636Z,23.30
2019-02-10T13:45:43.175Z,21.03
2019-02-10T13:48:12.670Z,21.93
2019-02-10T13:50:42.143Z,23.40
2019-02-10T13:53:11.659Z,21.17
2019-02-10T13:55:42.128Z,23.63
2019-02-10T13:58:11.602Z,26.17
2019-02-10T14:00:41.031Z,23.90
2019-02-10T14:03:10.516Z,22.77
2019-02-10T14:05:40.013Z,28.90
2019-02-10T14:08:09.585Z,25.53
2019-02-10T14:10:39.074Z,24.57
2019-02-10T14:13:08.621Z,28.93
2019-02-10T14:15:38.154Z,25.20
2019-02-10T14:18:07.698Z,26.47
2019-02-10T14:20:37.233Z,26.03
2019-02-10T14:23:06.749Z,24.00
2019-02-10T14:25:36.249Z,25.37
2019-02-10T14:28:05.831Z,25.50
2019-02-10T14:30:35.310Z,24.20
2019-02-10T14:33:04.816Z,26.40
2019-02-10T14:35:34.368Z,29.53
2019-02-10T14:38:03.835Z,25.93
2019-02-10T14:40:34.052Z,23.33
2019-02-10T14:43:03.616Z,30.97
2019-02-10T14:45:33.093Z,55.83
2019-02-10T14:48:02.820Z,30.73
2019-02-10T14:50:32.320Z,29.47
2019-02-10T14:53:01.821Z,33.60
2019-02-10T14:55:31.336Z,33.30
2019-02-10T14:58:00.815Z,30.03
2019-02-10T15:00:30.300Z,30.77
2019-02-10T15:02:59.807Z,30.07
2019-02-10T15:05:29.311Z,29.63
2019-02-10T15:07:58.799Z,27.63
2019-02-10T15:10:28.304Z,27.90
2019-02-10T15:12:57.793Z,27.30
2019-02-10T15:15:27.256Z,23.10
2019-02-10T15:17:56.775Z,23.77
2019-02-10T15:20:26.350Z,29.87
2019-02-10T15:22:55.838Z,27.47
2019-02-10T15:25:25.346Z,27.57
2019-02-10T15:27:54.817Z,23.80
2019-02-10T15:30:24.299Z,25.17
2019-02-10T15:32:53.823Z,28.20
2019-02-10T15:35:23.272Z,26.20
2019-02-10T15:37:52.744Z,20.17
2019-02-10T15:40:22.255Z,21.73
2019-02-10T15:42:51.723Z,29.63
2019-02-10T15:45:21.200Z,23.57
2019-02-10T15:47:50.695Z,25.67
2019-02-10T15:50:20.163Z,24.37
2019-02-10T15:52:49.718Z,21.33
2019-02-10T15:55:19.234Z,20.70
2019-02-10T15:57:48.891Z,21.57
2019-02-10T16:00:23.521Z,25.43
2019-02-10T16:02:53.133Z,25.30
2019-02-10T16:05:22.737Z,29.53
2019-02-10T16:07:52.202Z,24.43
2019-02-10T16:10:22.046Z,29.10
2019-02-10T16:12:51.821Z,28.37
2019-02-10T16:15:21.288Z,21.93
2019-02-10T16:17:50.809Z,29.13
2019-02-10T16:20:20.384Z,30.93
2019-02-10T16:22:49.985Z,27.50
2019-02-10T16:25:19.534Z,22.77
2019-02-10T16:27:49.174Z,24.70
2019-02-10T16:30:20.205Z,22.67
2019-02-10T16:32:50.442Z,22.10
2019-02-10T16:35:20.200Z,23.13
2019-02-10T16:37:49.679Z,22.50
2019-02-10T16:40:21.570Z,23.07
2019-02-10T16:42:51.053Z,22.73
2019-02-10T16:45:20.526Z,20.00
2019-02-10T16:47:50.055Z,22.67
2019-02-10T16:50:19.594Z,24.47
2019-02-10T16:52:49.082Z,25.80
2019-02-10T16:55:20.937Z,26.00
2019-02-10T16:57:50.453Z,23.07
2019-02-10T17:00:20.006Z,21.13
2019-02-10T17:02:49.449Z,13.10
2019-02-10T17:05:18.956Z,9.17
2019-02-10T17:07:48.414Z,7.73
2019-02-10T17:10:21.172Z,10.50
2019-02-10T17:12:50.677Z,9.67
2019-02-10T17:15:20.146Z,7.53
2019-02-10T17:17:49.600Z,6.47
2019-02-10T17:20:19.093Z,7.90
2019-02-10T17:22:48.560Z,9.13
2019-02-10T17:25:27.506Z,9.20
2019-02-10T17:27:56.969Z,9.03
2019-02-10T17:30:26.550Z,7.93
2019-02-10T17:32:56.049Z,7.17
2019-02-10T17:35:25.630Z,7.43
2019-02-10T17:37:55.255Z,10.50
2019-02-10T17:40:50.362Z,8.27
2019-02-10T17:43:27.853Z,10.80
2019-02-10T17:45:51.044Z,10.90
2019-02-10T17:48:20.537Z,8.23
2019-02-10T17:50:50.021Z,8.57
2019-02-10T17:53:19.569Z,9.07
2019-02-10T17:55:49.031Z,10.30
2019-02-10T17:58:18.508Z,7.53
2019-02-10T18:00:49.564Z,7.53
2019-02-10T18:03:19.086Z,8.30
2019-02-10T18:05:48.572Z,11.60
2019-02-10T18:08:18.058Z,9.90
2019-02-10T18:10:47.602Z,11.77
2019-02-10T18:13:17.087Z,10.90
2019-02-10T18:15:48.153Z,10.50
2019-02-10T18:18:37.370Z,9.47
2019-02-10T18:21:24.897Z,12.47
2019-02-10T18:23:58.999Z,16.47
2019-02-10T18:26:46.100Z,20.53
2019-02-10T18:29:36.665Z,20.00
2019-02-10T18:32:24.280Z,19.60
2019-02-10T18:35:01.682Z,16.13
2019-02-10T18:37:42.851Z,14.13
2019-02-10T18:40:19.843Z,21.80
2019-02-10T18:42:53.979Z,29.10
2019-02-10T18:45:28.060Z,17.10
2019-02-10T18:47:59.151Z,18.70
2019-02-10T18:50:36.441Z,21.27
2019-02-10T18:53:07.569Z,22.73
2019-02-10T18:55:54.831Z,25.93
2019-02-10T18:58:31.967Z,19.37
2019-02-10T19:01:11.916Z,29.17
2019-02-10T19:03:42.991Z,28.00
2019-02-10T19:06:25.967Z,19.67
2019-02-10T19:09:04.084Z,22.90
2019-02-10T19:11:37.977Z,21.30
2019-02-10T19:14:09.054Z,18.30
2019-02-10T19:16:45.844Z,13.70
2019-02-10T19:19:19.854Z,10.50
2019-02-10T19:21:50.919Z,10.23
2019-02-10T19:24:22.063Z,16.83
2019-02-10T19:27:02.243Z,16.17
2019-02-10T19:29:33.406Z,12.03
2019-02-10T19:32:04.448Z,14.47
2019-02-10T19:34:38.417Z,17.10
2019-02-10T19:37:18.605Z,12.00
2019-02-10T19:39:49.674Z,9.60
2019-02-10T19:42:23.738Z,11.13
2019-02-10T19:45:10.970Z,8.60
2019-02-10T19:47:47.984Z,11.20
2019-02-10T19:50:25.064Z,6.50
2019-02-10T19:52:59.023Z,9.60
2019-02-10T19:55:33.065Z,5.80
2019-02-10T19:58:04.113Z,15.20
2019-02-10T20:00:53.581Z,6.73
2019-02-10T20:03:27.233Z,12.93
2019-02-10T20:05:58.269Z,8.80
2019-02-10T20:08:29.310Z,7.47
2019-02-10T20:11:07.445Z,7.30
2019-02-10T20:13:38.496Z,8.80
2019-02-10T20:16:12.390Z,7.73
2019-02-10T20:19:01.658Z,9.03
2019-02-10T20:21:32.722Z,7.23
2019-02-10T20:24:06.411Z,7.97
2019-02-10T20:26:53.743Z,5.80
2019-02-10T20:29:30.642Z,4.90
2019-02-10T20:32:10.843Z,5.43
2019-02-10T20:34:51.038Z,6.63
2019-02-10T20:37:27.922Z,4.27
2019-02-10T20:39:58.954Z,8.50
2019-02-10T20:42:39.046Z,6.07
2019-02-10T20:45:28.181Z,4.07
2019-02-10T20:47:59.171Z,5.00
2019-02-10T20:50:47.999Z,4.53
2019-02-10T20:53:35.296Z,4.30
2019-02-10T20:56:12.372Z,7.70
2019-02-10T20:58:58.728Z,5.20
2019-02-10T21:01:42.158Z,7.60
2019-02-10T21:04:16.230Z,7.23
2019-02-10T21:06:53.330Z,4.80
2019-02-10T21:09:27.385Z,5.20
2019-02-10T21:12:20.443Z,6.10
2019-02-10T21:14:53.834Z,4.23
2019-02-10T21:17:24.870Z,4.43
2019-02-10T21:20:10.938Z,4.47
2019-02-10T21:22:44.719Z,3.50
2019-02-10T21:25:18.349Z,2.63
2019-02-10T21:28:04.792Z,4.13
2019-02-10T21:30:35.847Z,4.87
2019-02-10T21:33:06.887Z,4.00
2019-02-10T21:35:43.604Z,4.20
2019-02-10T21:38:17.831Z,4.37
2019-02-10T21:40:57.910Z,3.43
2019-02-10T21:43:28.962Z,5.50
2019-02-10T21:46:09.050Z,8.87
2019-02-10T21:48:59.275Z,6.63
2019-02-10T21:51:28.766Z,4.13
2019-02-10T21:53:58.308Z,4.43
2019-02-10T21:56:27.767Z,4.57
2019-02-10T21:58:57.266Z,4.50
2019-02-10T22:01:26.734Z,4.30
2019-02-10T22:03:56.198Z,6.60
2019-02-10T22:06:25.693Z,4.90
2019-02-10T22:08:55.175Z,5.00
2019-02-10T22:11:24.633Z,6.07
2019-02-10T22:13:54.120Z,4.40
2019-02-10T22:16:23.589Z,4.03
2019-02-10T22:18:53.051Z,5.10
2019-02-10T22:21:22.536Z,4.90
2019-02-10T22:23:52.008Z,4.43
2019-02-10T22:26:21.474Z,5.80
2019-02-10T22:28:50.973Z,4.63
2019-02-10T22:31:20.484Z,5.13
2019-02-10T22:33:51.514Z,5.50
2019-02-10T22:36:21.256Z,4.80
2019-02-10T22:38:50.716Z,6.57
2019-02-10T22:41:20.131Z,5.57
2019-02-10T22:43:49.544Z,5.70
2019-02-10T22:46:19.132Z,5.70
2019-02-10T22:48:48.649Z,6.77
2019-02-10T22:51:18.144Z,5.97
2019-02-10T22:53:47.602Z,8.60
2019-02-10T22:56:17.077Z,6.60
2019-02-10T22:58:46.572Z,6.83
2019-02-10T23:01:16.038Z,5.93
2019-02-10T23:03:45.494Z,4.83
2019-02-10T23:06:15.082Z,4.37
2019-02-10T23:08:44.550Z,4.43
2019-02-10T23:11:14.043Z,1.80
2019-02-10T23:13:43.504Z,1.80
2019-02-10T23:16:12.989Z,1.30
2019-02-10T23:18:42.450Z,3.83
2019-02-10T23:21:11.916Z,1.47
2019-02-10T23:23:41.462Z,1.50
2019-02-10T23:26:10.909Z,2.43
2019-02-10T23:28:40.360Z,2.60
2019-02-10T23:31:09.849Z,2.20
2019-02-10T23:33:39.319Z,2.60
2019-02-10T23:36:08.796Z,2.60
2019-02-10T23:38:38.281Z,2.30
2019-02-10T23:41:07.750Z,1.40
2019-02-10T23:43:37.201Z,1.97
2019-02-10T23:46:06.690Z,2.90
2019-02-10T23:48:36.147Z,2.13
2019-02-10T23:51:05.623Z,1.67
2019-02-10T23:53:35.106Z,1.90
2019-02-10T23:56:04.575Z,0.80
2019-02-10T23:58:34.089Z,1.50
